sensor_id;sensor_type;location;lat;lon;timestamp;pressure;altitude;pressure_sealevel;temperature;humidity
7802;BME280;3945;48.952;9.506;2023-02-28T00:00:03;98657.78;;;-1.17;65.22
7802;BME280;3945;48.952;9.506;2023-02-28T00:02:35;98660.69;;;-1.20;64.94
7802;BME280;3945;48.952;9.506;2023-02-28T00:05:01;98656.28;;;-1.20;65.05
7802;BME280;3945;48.952;9.506;2023-02-28T00:07:28;98646.81;;;-1.21;65.09
7802;BME280;3945;48.952;9.506;2023-02-28T00:09:54;98650.09;;;-1.19;65.23
7802;BME280;3945;48.952;9.506;2023-02-28T00:12:21;98651.72;;;-1.17;65.15
7802;BME280;3945;48.952;9.506;2023-02-28T00:14:47;98652.69;;;-1.19;65.48
7802;BME280;3945;48.952;9.506;2023-02-28T00:17:14;98653.81;;;-1.21;65.75
7802;BME280;3945;48.952;9.506;2023-02-28T00:19:42;98652.16;;;-1.22;66.11
7802;BME280;3945;48.952;9.506;2023-02-28T00:22:09;98657.38;;;-1.22;66.39
7802;BME280;3945;48.952;9.506;2023-02-28T00:24:35;98648.91;;;-1.24;66.53
7802;BME280;3945;48.952;9.506;2023-02-28T00:27:01;98650.81;;;-1.26;66.19
7802;BME280;3945;48.952;9.506;2023-02-28T00:29:28;98653.31;;;-1.25;66.73
7802;BME280;3945;48.952;9.506;2023-02-28T00:31:54;98644.66;;;-1.25;66.98
7802;BME280;3945;48.952;9.506;2023-02-28T00:34:20;98648.38;;;-1.28;67.06
7802;BME280;3945;48.952;9.506;2023-02-28T00:36:48;98650.97;;;-1.28;67.07
7802;BME280;3945;48.952;9.506;2023-02-28T00:39:14;98657.00;;;-1.27;67.38
7802;BME280;3945;48.952;9.506;2023-02-28T00:41:41;98651.94;;;-1.29;67.58
7802;BME280;3945;48.952;9.506;2023-02-28T00:44:07;98649.63;;;-1.32;68.10
7802;BME280;3945;48.952;9.506;2023-02-28T00:46:34;98640.16;;;-1.33;68.18
7802;BME280;3945;48.952;9.506;2023-02-28T00:49:00;98645.25;;;-1.31;68.15
7802;BME280;3945;48.952;9.506;2023-02-28T00:51:26;98641.66;;;-1.30;68.01
7802;BME280;3945;48.952;9.506;2023-02-28T00:53:54;98643.47;;;-1.31;68.46
7802;BME280;3945;48.952;9.506;2023-02-28T00:56:20;98644.41;;;-1.32;69.26
7802;BME280;3945;48.952;9.506;2023-02-28T00:58:47;98636.44;;;-1.30;68.60
7802;BME280;3945;48.952;9.506;2023-02-28T01:01:13;98640.16;;;-1.33;68.85
7802;BME280;3945;48.952;9.506;2023-02-28T01:03:39;98641.81;;;-1.32;68.79
7802;BME280;3945;48.952;9.506;2023-02-28T01:06:06;98644.56;;;-1.33;69.54
7802;BME280;3945;48.952;9.506;2023-02-28T01:08:32;98634.25;;;-1.35;69.68
7802;BME280;3945;48.952;9.506;2023-02-28T01:11:06;98637.00;;;-1.36;69.75
7802;BME280;3945;48.952;9.506;2023-02-28T01:13:32;98640.31;;;-1.34;69.59
7802;BME280;3945;48.952;9.506;2023-02-28T01:15:59;98632.63;;;-1.36;69.94
7802;BME280;3945;48.952;9.506;2023-02-28T01:18:25;98632.94;;;-1.39;70.33
7802;BME280;3945;48.952;9.506;2023-02-28T01:20:52;98636.19;;;-1.37;70.34
7802;BME280;3945;48.952;9.506;2023-02-28T01:23:18;98627.03;;;-1.41;70.61
7802;BME280;3945;48.952;9.506;2023-02-28T01:25:44;98638.75;;;-1.45;70.62
7802;BME280;3945;48.952;9.506;2023-02-28T01:28:12;98627.31;;;-1.44;70.98
7802;BME280;3945;48.952;9.506;2023-02-28T01:30:38;98623.22;;;-1.46;70.94
7802;BME280;3945;48.952;9.506;2023-02-28T01:33:05;98628.44;;;-1.46;71.06
7802;BME280;3945;48.952;9.506;2023-02-28T01:35:32;98633.81;;;-1.48;71.41
7802;BME280;3945;48.952;9.506;2023-02-28T01:37:58;98621.56;;;-1.47;71.65
7802;BME280;3945;48.952;9.506;2023-02-28T01:40:24;98631.88;;;-1.46;71.26
7802;BME280;3945;48.952;9.506;2023-02-28T01:42:51;98624.19;;;-1.47;71.66
7802;BME280;3945;48.952;9.506;2023-02-28T01:45:20;98620.47;;;-1.45;71.40
7802;BME280;3945;48.952;9.506;2023-02-28T01:47:48;98624.06;;;-1.46;71.68
7802;BME280;3945;48.952;9.506;2023-02-28T01:50:16;98624.47;;;-1.50;72.03
7802;BME280;3945;48.952;9.506;2023-02-28T01:52:44;98625.97;;;-1.48;71.87
7802;BME280;3945;48.952;9.506;2023-02-28T01:55:12;98622.53;;;-1.48;72.39
7802;BME280;3945;48.952;9.506;2023-02-28T01:57:40;98615.03;;;-1.51;72.30
7802;BME280;3945;48.952;9.506;2023-02-28T02:00:09;98619.25;;;-1.50;72.73
7802;BME280;3945;48.952;9.506;2023-02-28T02:02:39;98614.34;;;-1.53;72.99
7802;BME280;3945;48.952;9.506;2023-02-28T02:05:07;98622.84;;;-1.51;72.92
7802;BME280;3945;48.952;9.506;2023-02-28T02:07:35;98616.00;;;-1.52;72.98
7802;BME280;3945;48.952;9.506;2023-02-28T02:10:04;98617.78;;;-1.53;73.32
7802;BME280;3945;48.952;9.506;2023-02-28T02:12:33;98610.09;;;-1.54;72.76
7802;BME280;3945;48.952;9.506;2023-02-28T02:15:05;98611.88;;;-1.55;73.46
7802;BME280;3945;48.952;9.506;2023-02-28T02:17:36;98604.72;;;-1.53;73.22
7802;BME280;3945;48.952;9.506;2023-02-28T02:20:12;98606.66;;;-1.55;73.50
7802;BME280;3945;48.952;9.506;2023-02-28T02:22:47;98605.38;;;-1.51;73.56
7802;BME280;3945;48.952;9.506;2023-02-28T02:25:24;98598.69;;;-1.53;73.73
7802;BME280;3945;48.952;9.506;2023-02-28T02:28:01;98602.63;;;-1.49;74.24
7802;BME280;3945;48.952;9.506;2023-02-28T02:30:46;98602.13;;;-1.53;74.11
7802;BME280;3945;48.952;9.506;2023-02-28T02:33:28;98592.06;;;-1.48;73.91
7802;BME280;3945;48.952;9.506;2023-02-28T02:36:03;98596.59;;;-1.50;74.74
7802;BME280;3945;48.952;9.506;2023-02-28T02:38:33;98595.50;;;-1.47;73.97
7802;BME280;3945;48.952;9.506;2023-02-28T02:41:03;98593.56;;;-1.45;74.24
7802;BME280;3945;48.952;9.506;2023-02-28T02:43:32;98593.38;;;-1.44;74.57
7802;BME280;3945;48.952;9.506;2023-02-28T02:46:02;98592.59;;;-1.44;74.92
7802;BME280;3945;48.952;9.506;2023-02-28T02:48:31;98594.53;;;-1.46;74.96
7802;BME280;3945;48.952;9.506;2023-02-28T02:51:00;98591.31;;;-1.40;74.71
7802;BME280;3945;48.952;9.506;2023-02-28T02:53:29;98594.06;;;-1.42;74.63
7802;BME280;3945;48.952;9.506;2023-02-28T02:55:56;98588.84;;;-1.42;75.28
7802;BME280;3945;48.952;9.506;2023-02-28T02:58:24;98585.94;;;-1.39;75.25
7802;BME280;3945;48.952;9.506;2023-02-28T03:00:51;98579.78;;;-1.38;74.83
7802;BME280;3945;48.952;9.506;2023-02-28T03:03:19;98583.34;;;-1.39;74.76
7802;BME280;3945;48.952;9.506;2023-02-28T03:05:54;98585.94;;;-1.39;75.22
7802;BME280;3945;48.952;9.506;2023-02-28T03:08:20;98592.13;;;-1.40;75.03
7802;BME280;3945;48.952;9.506;2023-02-28T03:10:49;98587.88;;;-1.41;75.42
7802;BME280;3945;48.952;9.506;2023-02-28T03:13:32;98578.13;;;-1.39;75.40
7802;BME280;3945;48.952;9.506;2023-02-28T03:16:07;98583.34;;;-1.39;75.40
7802;BME280;3945;48.952;9.506;2023-02-28T03:18:43;98575.50;;;-1.39;75.49
7802;BME280;3945;48.952;9.506;2023-02-28T03:21:14;98573.03;;;-1.40;75.42
7802;BME280;3945;48.952;9.506;2023-02-28T03:23:45;98572.91;;;-1.39;75.85
7802;BME280;3945;48.952;9.506;2023-02-28T03:26:18;98568.66;;;-1.40;75.69
7802;BME280;3945;48.952;9.506;2023-02-28T03:28:47;98565.34;;;-1.42;75.45
7802;BME280;3945;48.952;9.506;2023-02-28T03:31:18;98566.19;;;-1.41;75.95
7802;BME280;3945;48.952;9.506;2023-02-28T03:33:47;98570.72;;;-1.43;76.09
7802;BME280;3945;48.952;9.506;2023-02-28T03:36:20;98577.59;;;-1.42;76.28
7802;BME280;3945;48.952;9.506;2023-02-28T03:38:49;98575.78;;;-1.42;76.13
7802;BME280;3945;48.952;9.506;2023-02-28T03:41:20;98576.34;;;-1.38;76.61
7802;BME280;3945;48.952;9.506;2023-02-28T03:43:49;98577.16;;;-1.38;75.89
7802;BME280;3945;48.952;9.506;2023-02-28T03:46:18;98579.59;;;-1.36;75.91
7802;BME280;3945;48.952;9.506;2023-02-28T03:48:48;98574.53;;;-1.38;76.12
7802;BME280;3945;48.952;9.506;2023-02-28T03:51:17;98575.66;;;-1.40;76.14
7802;BME280;3945;48.952;9.506;2023-02-28T03:53:45;98581.91;;;-1.33;76.32
7802;BME280;3945;48.952;9.506;2023-02-28T03:56:14;98582.47;;;-1.30;76.04
7802;BME280;3945;48.952;9.506;2023-02-28T03:58:44;98590.44;;;-1.31;76.11
7802;BME280;3945;48.952;9.506;2023-02-28T04:01:15;98584.25;;;-1.30;75.77
7802;BME280;3945;48.952;9.506;2023-02-28T04:03:45;98591.25;;;-1.31;75.28
7802;BME280;3945;48.952;9.506;2023-02-28T04:06:13;98595.50;;;-1.30;75.78
7802;BME280;3945;48.952;9.506;2023-02-28T04:08:41;98586.03;;;-1.31;75.84
7802;BME280;3945;48.952;9.506;2023-02-28T04:11:11;98590.44;;;-1.31;75.83
7802;BME280;3945;48.952;9.506;2023-02-28T04:13:41;98594.00;;;-1.32;76.09
7802;BME280;3945;48.952;9.506;2023-02-28T04:16:09;98599.91;;;-1.30;75.78
7802;BME280;3945;48.952;9.506;2023-02-28T04:18:37;98596.97;;;-1.27;76.52
7802;BME280;3945;48.952;9.506;2023-02-28T04:21:03;98605.63;;;-1.27;76.15
7802;BME280;3945;48.952;9.506;2023-02-28T04:23:30;98601.09;;;-1.25;76.42
7802;BME280;3945;48.952;9.506;2023-02-28T04:25:56;98608.59;;;-1.22;75.81
7802;BME280;3945;48.952;9.506;2023-02-28T04:28:22;98606.00;;;-1.22;75.75
7802;BME280;3945;48.952;9.506;2023-02-28T04:30:53;98611.22;;;-1.22;76.70
7802;BME280;3945;48.952;9.506;2023-02-28T04:33:21;98603.91;;;-1.18;76.09
7802;BME280;3945;48.952;9.506;2023-02-28T04:35:47;98603.91;;;-1.18;75.91
7802;BME280;3945;48.952;9.506;2023-02-28T04:38:14;98605.44;;;-1.15;75.88
7802;BME280;3945;48.952;9.506;2023-02-28T04:40:40;98595.94;;;-1.16;75.99
7802;BME280;3945;48.952;9.506;2023-02-28T04:43:06;98600.19;;;-1.15;76.48
7802;BME280;3945;48.952;9.506;2023-02-28T04:45:33;98607.22;;;-1.16;75.91
7802;BME280;3945;48.952;9.506;2023-02-28T04:47:59;98602.00;;;-1.16;76.48
7802;BME280;3945;48.952;9.506;2023-02-28T04:50:26;98595.78;;;-1.15;76.38
7802;BME280;3945;48.952;9.506;2023-02-28T04:52:53;98596.31;;;-1.11;76.49
7802;BME280;3945;48.952;9.506;2023-02-28T04:55:19;98594.19;;;-1.08;76.15
7802;BME280;3945;48.952;9.506;2023-02-28T04:57:45;98590.63;;;-1.07;76.13
7802;BME280;3945;48.952;9.506;2023-02-28T05:00:12;98591.31;;;-1.05;75.80
7802;BME280;3945;48.952;9.506;2023-02-28T05:02:41;98606.75;;;-1.11;76.07
7802;BME280;3945;48.952;9.506;2023-02-28T05:05:08;98604.97;;;-1.11;75.80
7802;BME280;3945;48.952;9.506;2023-02-28T05:07:35;98615.09;;;-1.08;75.60
7802;BME280;3945;48.952;9.506;2023-02-28T05:10:02;98604.81;;;-1.09;75.66
7802;BME280;3945;48.952;9.506;2023-02-28T05:12:28;98613.47;;;-1.09;75.46
7802;BME280;3945;48.952;9.506;2023-02-28T05:14:54;98610.88;;;-1.09;75.66
7802;BME280;3945;48.952;9.506;2023-02-28T05:17:21;98607.56;;;-1.11;75.76
7802;BME280;3945;48.952;9.506;2023-02-28T05:19:47;98604.50;;;-1.06;75.58
7802;BME280;3945;48.952;9.506;2023-02-28T05:22:14;98605.31;;;-1.06;75.14
7802;BME280;3945;48.952;9.506;2023-02-28T05:24:43;98605.19;;;-1.04;75.26
7802;BME280;3945;48.952;9.506;2023-02-28T05:27:09;98606.16;;;-1.05;75.28
7802;BME280;3945;48.952;9.506;2023-02-28T05:29:36;98613.16;;;-1.06;75.44
7802;BME280;3945;48.952;9.506;2023-02-28T05:32:07;98604.34;;;-1.05;74.87
7802;BME280;3945;48.952;9.506;2023-02-28T05:34:33;98606.97;;;-1.05;74.94
7802;BME280;3945;48.952;9.506;2023-02-28T05:36:59;98604.06;;;-1.02;74.86
7802;BME280;3945;48.952;9.506;2023-02-28T05:39:26;98602.72;;;-1.06;75.15
7802;BME280;3945;48.952;9.506;2023-02-28T05:41:54;98610.53;;;-1.06;75.29
7802;BME280;3945;48.952;9.506;2023-02-28T05:44:20;98611.09;;;-1.02;74.86
7802;BME280;3945;48.952;9.506;2023-02-28T05:46:46;98613.69;;;-1.02;75.06
7802;BME280;3945;48.952;9.506;2023-02-28T05:49:12;98602.09;;;-1.00;74.62
7802;BME280;3945;48.952;9.506;2023-02-28T05:51:39;98611.72;;;-1.00;74.51
7802;BME280;3945;48.952;9.506;2023-02-28T05:54:05;98614.50;;;-1.02;74.87
7802;BME280;3945;48.952;9.506;2023-02-28T05:56:32;98613.50;;;-1.01;74.83
7802;BME280;3945;48.952;9.506;2023-02-28T05:59:00;98610.25;;;-1.03;74.85
7802;BME280;3945;48.952;9.506;2023-02-28T06:01:31;98617.78;;;-1.00;74.87
7802;BME280;3945;48.952;9.506;2023-02-28T06:03:58;98617.94;;;-1.01;74.80
7802;BME280;3945;48.952;9.506;2023-02-28T06:06:25;98614.88;;;-0.97;74.21
7802;BME280;3945;48.952;9.506;2023-02-28T06:08:51;98617.94;;;-1.01;74.58
7802;BME280;3945;48.952;9.506;2023-02-28T06:11:17;98622.16;;;-1.00;74.58
7802;BME280;3945;48.952;9.506;2023-02-28T06:13:44;98624.34;;;-0.96;74.28
7802;BME280;3945;48.952;9.506;2023-02-28T06:16:12;98622.56;;;-0.95;74.67
7802;BME280;3945;48.952;9.506;2023-02-28T06:18:38;98629.25;;;-0.93;74.50
7802;BME280;3945;48.952;9.506;2023-02-28T06:21:05;98637.25;;;-0.94;74.40
7802;BME280;3945;48.952;9.506;2023-02-28T06:23:31;98635.47;;;-0.94;74.31
7802;BME280;3945;48.952;9.506;2023-02-28T06:25:58;98638.09;;;-0.94;74.58
7802;BME280;3945;48.952;9.506;2023-02-28T06:28:24;98635.84;;;-0.89;74.19
7802;BME280;3945;48.952;9.506;2023-02-28T06:30:51;98638.13;;;-0.86;73.78
7802;BME280;3945;48.952;9.506;2023-02-28T06:33:18;98636.66;;;-0.88;74.19
7802;BME280;3945;48.952;9.506;2023-02-28T06:35:46;98642.84;;;-0.89;73.94
7802;BME280;3945;48.952;9.506;2023-02-28T06:38:12;98652.75;;;-0.93;74.17
7802;BME280;3945;48.952;9.506;2023-02-28T06:40:39;98651.66;;;-0.90;74.25
7802;BME280;3945;48.952;9.506;2023-02-28T06:43:05;98659.19;;;-0.87;74.29
7802;BME280;3945;48.952;9.506;2023-02-28T06:45:32;98650.84;;;-0.91;73.60
7802;BME280;3945;48.952;9.506;2023-02-28T06:47:58;98655.84;;;-0.97;74.37
7802;BME280;3945;48.952;9.506;2023-02-28T06:50:26;98652.53;;;-0.99;74.73
7802;BME280;3945;48.952;9.506;2023-02-28T06:52:54;98665.00;;;-0.93;74.26
7802;BME280;3945;48.952;9.506;2023-02-28T06:55:20;98660.16;;;-0.88;73.92
7802;BME280;3945;48.952;9.506;2023-02-28T06:57:47;98667.47;;;-0.92;73.94
7802;BME280;3945;48.952;9.506;2023-02-28T07:00:15;98672.25;;;-0.87;73.88
7802;BME280;3945;48.952;9.506;2023-02-28T07:02:42;98672.25;;;-0.87;74.06
7802;BME280;3945;48.952;9.506;2023-02-28T07:05:08;98673.72;;;-0.85;74.22
7802;BME280;3945;48.952;9.506;2023-02-28T07:07:36;98669.19;;;-0.83;74.21
7802;BME280;3945;48.952;9.506;2023-02-28T07:10:05;98674.13;;;-0.80;73.83
7802;BME280;3945;48.952;9.506;2023-02-28T07:12:32;98679.50;;;-0.81;73.48
7802;BME280;3945;48.952;9.506;2023-02-28T07:14:58;98676.75;;;-0.80;73.51
7802;BME280;3945;48.952;9.506;2023-02-28T07:17:25;98680.00;;;-0.77;73.22
7802;BME280;3945;48.952;9.506;2023-02-28T07:19:51;98685.38;;;-0.79;74.16
7802;BME280;3945;48.952;9.506;2023-02-28T07:22:17;98683.66;;;-0.70;73.51
7802;BME280;3945;48.952;9.506;2023-02-28T07:24:45;98680.91;;;-0.69;73.72
7802;BME280;3945;48.952;9.506;2023-02-28T07:27:11;98681.09;;;-0.62;73.50
7802;BME280;3945;48.952;9.506;2023-02-28T07:29:37;98668.25;;;-0.56;73.63
7802;BME280;3945;48.952;9.506;2023-02-28T07:32:04;98684.16;;;-0.49;73.14
7802;BME280;3945;48.952;9.506;2023-02-28T07:34:30;98686.16;;;-0.43;73.16
7802;BME280;3945;48.952;9.506;2023-02-28T07:36:56;98688.31;;;-0.38;72.53
7802;BME280;3945;48.952;9.506;2023-02-28T07:39:23;98689.00;;;-0.36;72.15
7802;BME280;3945;48.952;9.506;2023-02-28T07:41:50;98685.91;;;-0.32;72.16
7802;BME280;3945;48.952;9.506;2023-02-28T07:44:17;98698.22;;;-0.24;72.19
7802;BME280;3945;48.952;9.506;2023-02-28T07:46:43;98693.50;;;-0.21;71.71
7802;BME280;3945;48.952;9.506;2023-02-28T07:49:09;98694.84;;;-0.17;71.77
7802;BME280;3945;48.952;9.506;2023-02-28T07:51:36;98696.50;;;-0.16;71.86
7802;BME280;3945;48.952;9.506;2023-02-28T07:54:02;98694.56;;;-0.06;71.61
7802;BME280;3945;48.952;9.506;2023-02-28T07:56:29;98695.78;;;0.08;71.66
7802;BME280;3945;48.952;9.506;2023-02-28T07:58:56;98699.28;;;0.17;71.44
7802;BME280;3945;48.952;9.506;2023-02-28T08:01:23;98693.13;;;0.26;70.39
7802;BME280;3945;48.952;9.506;2023-02-28T08:03:49;98699.63;;;0.22;69.73
7802;BME280;3945;48.952;9.506;2023-02-28T08:06:16;98705.84;;;0.21;70.28
7802;BME280;3945;48.952;9.506;2023-02-28T08:08:43;98705.34;;;0.17;69.48
7802;BME280;3945;48.952;9.506;2023-02-28T08:11:10;98696.47;;;0.10;70.04
7802;BME280;3945;48.952;9.506;2023-02-28T08:13:36;98703.19;;;0.13;69.88
7802;BME280;3945;48.952;9.506;2023-02-28T08:16:04;98699.81;;;0.20;69.80
7802;BME280;3945;48.952;9.506;2023-02-28T08:18:30;98707.56;;;0.38;69.96
7802;BME280;3945;48.952;9.506;2023-02-28T08:20:58;98695.38;;;0.55;69.61
7802;BME280;3945;48.952;9.506;2023-02-28T08:23:24;98698.19;;;0.69;69.42
7802;BME280;3945;48.952;9.506;2023-02-28T08:25:54;98695.97;;;0.91;68.35
7802;BME280;3945;48.952;9.506;2023-02-28T08:28:21;98693.03;;;1.10;68.80
7802;BME280;3945;48.952;9.506;2023-02-28T08:30:47;98684.22;;;1.27;67.23
7802;BME280;3945;48.952;9.506;2023-02-28T08:33:15;98692.94;;;1.44;66.22
7802;BME280;3945;48.952;9.506;2023-02-28T08:35:41;98684.56;;;1.48;66.38
7802;BME280;3945;48.952;9.506;2023-02-28T08:38:07;98677.81;;;1.62;65.81
7802;BME280;3945;48.952;9.506;2023-02-28T08:40:34;98681.94;;;1.73;64.85
7802;BME280;3945;48.952;9.506;2023-02-28T08:43:00;98687.28;;;1.87;64.35
7802;BME280;3945;48.952;9.506;2023-02-28T08:45:27;98689.75;;;1.97;64.36
7802;BME280;3945;48.952;9.506;2023-02-28T08:47:53;98697.94;;;2.02;64.32
7802;BME280;3945;48.952;9.506;2023-02-28T08:50:21;98692.19;;;2.07;63.10
7802;BME280;3945;48.952;9.506;2023-02-28T08:52:48;98688.91;;;2.05;63.63
7802;BME280;3945;48.952;9.506;2023-02-28T08:55:14;98700.53;;;2.18;63.56
7802;BME280;3945;48.952;9.506;2023-02-28T08:57:40;98694.78;;;2.23;63.34
7802;BME280;3945;48.952;9.506;2023-02-28T09:00:07;98693.13;;;2.30;63.41
7802;BME280;3945;48.952;9.506;2023-02-28T09:02:35;98689.16;;;2.34;62.08
7802;BME280;3945;48.952;9.506;2023-02-28T09:05:02;98689.09;;;2.50;63.11
7802;BME280;3945;48.952;9.506;2023-02-28T09:07:30;98687.06;;;2.60;61.98
7802;BME280;3945;48.952;9.506;2023-02-28T09:09:56;98688.22;;;2.66;62.05
7802;BME280;3945;48.952;9.506;2023-02-28T09:12:23;98683.59;;;2.68;61.37
7802;BME280;3945;48.952;9.506;2023-02-28T09:14:49;98681.09;;;2.74;61.50
7802;BME280;3945;48.952;9.506;2023-02-28T09:17:16;98684.66;;;2.82;61.23
7802;BME280;3945;48.952;9.506;2023-02-28T09:19:43;98685.81;;;2.87;61.34
7802;BME280;3945;48.952;9.506;2023-02-28T09:22:09;98687.41;;;2.88;61.24
7802;BME280;3945;48.952;9.506;2023-02-28T09:24:37;98681.28;;;2.96;60.15
7802;BME280;3945;48.952;9.506;2023-02-28T09:27:04;98687.50;;;3.03;61.33
7802;BME280;3945;48.952;9.506;2023-02-28T09:29:30;98696.03;;;3.05;61.05
7802;BME280;3945;48.952;9.506;2023-02-28T09:31:57;98702.41;;;3.10;59.67
7802;BME280;3945;48.952;9.506;2023-02-28T09:34:24;98690.63;;;3.29;60.44
7802;BME280;3945;48.952;9.506;2023-02-28T09:36:50;98692.44;;;3.29;58.64
7802;BME280;3945;48.952;9.506;2023-02-28T09:39:20;98690.34;;;3.24;58.78
7802;BME280;3945;48.952;9.506;2023-02-28T09:41:48;98694.91;;;3.30;58.94
7802;BME280;3945;48.952;9.506;2023-02-28T09:44:17;98696.69;;;3.52;59.18
7802;BME280;3945;48.952;9.506;2023-02-28T09:46:47;98701.25;;;3.59;57.72
7802;BME280;3945;48.952;9.506;2023-02-28T09:49:15;98690.75;;;3.73;58.18
7802;BME280;3945;48.952;9.506;2023-02-28T09:51:47;98698.16;;;3.92;56.80
7802;BME280;3945;48.952;9.506;2023-02-28T09:54:17;98690.81;;;4.03;57.25
7802;BME280;3945;48.952;9.506;2023-02-28T09:56:45;98698.00;;;4.38;55.84
7802;BME280;3945;48.952;9.506;2023-02-28T09:59:13;98693.88;;;4.80;56.33
7802;BME280;3945;48.952;9.506;2023-02-28T10:01:43;98690.59;;;5.14;54.45
7802;BME280;3945;48.952;9.506;2023-02-28T10:04:16;98697.38;;;5.44;53.92
7802;BME280;3945;48.952;9.506;2023-02-28T10:06:50;98694.63;;;5.52;51.98
7802;BME280;3945;48.952;9.506;2023-02-28T10:09:17;98693.91;;;5.65;52.94
7802;BME280;3945;48.952;9.506;2023-02-28T10:11:45;98693.72;;;5.87;51.89
7802;BME280;3945;48.952;9.506;2023-02-28T10:14:14;98695.59;;;6.21;51.54
7802;BME280;3945;48.952;9.506;2023-02-28T10:16:43;98691.75;;;6.24;49.21
7802;BME280;3945;48.952;9.506;2023-02-28T10:19:18;98713.03;;;6.16;49.06
7802;BME280;3945;48.952;9.506;2023-02-28T10:21:47;98704.28;;;6.15;49.86
7802;BME280;3945;48.952;9.506;2023-02-28T10:24:19;98704.66;;;6.40;48.95
7802;BME280;3945;48.952;9.506;2023-02-28T10:26:46;98701.63;;;6.43;48.38
7802;BME280;3945;48.952;9.506;2023-02-28T10:29:14;98695.63;;;6.62;48.81
7802;BME280;3945;48.952;9.506;2023-02-28T10:31:41;98706.97;;;6.56;48.47
7802;BME280;3945;48.952;9.506;2023-02-28T10:34:07;98702.97;;;6.67;49.56
7802;BME280;3945;48.952;9.506;2023-02-28T10:36:37;98709.44;;;7.05;48.25
7802;BME280;3945;48.952;9.506;2023-02-28T10:41:45;98697.25;;;7.24;48.86
7802;BME280;3945;48.952;9.506;2023-02-28T10:44:13;98696.00;;;7.14;48.05
7802;BME280;3945;48.952;9.506;2023-02-28T10:46:41;98697.06;;;7.26;48.32
7802;BME280;3945;48.952;9.506;2023-02-28T10:49:12;98705.06;;;7.65;47.84
7802;BME280;3945;48.952;9.506;2023-02-28T10:51:40;98695.06;;;8.07;47.41
7802;BME280;3945;48.952;9.506;2023-02-28T10:54:13;98694.25;;;8.33;45.54
7802;BME280;3945;48.952;9.506;2023-02-28T10:56:41;98696.50;;;8.42;46.03
7802;BME280;3945;48.952;9.506;2023-02-28T10:59:22;98687.66;;;8.61;44.92
7802;BME280;3945;48.952;9.506;2023-02-28T11:01:52;98696.25;;;8.50;44.87
7802;BME280;3945;48.952;9.506;2023-02-28T11:04:20;98691.13;;;8.62;44.54
7802;BME280;3945;48.952;9.506;2023-02-28T11:06:58;98687.63;;;8.68;45.37
7802;BME280;3945;48.952;9.506;2023-02-28T11:09:26;98674.34;;;8.68;44.44
7802;BME280;3945;48.952;9.506;2023-02-28T11:11:55;98676.06;;;8.49;45.66
7802;BME280;3945;48.952;9.506;2023-02-28T11:14:22;98684.25;;;8.41;45.11
7802;BME280;3945;48.952;9.506;2023-02-28T11:16:50;98685.44;;;8.45;44.06
7802;BME280;3945;48.952;9.506;2023-02-28T11:19:19;98678.56;;;8.11;44.83
7802;BME280;3945;48.952;9.506;2023-02-28T11:21:49;98679.38;;;8.05;45.15
7802;BME280;3945;48.952;9.506;2023-02-28T11:24:19;98683.88;;;7.78;44.15
7802;BME280;3945;48.952;9.506;2023-02-28T11:26:48;98676.53;;;7.74;45.29
7802;BME280;3945;48.952;9.506;2023-02-28T11:29:18;98684.91;;;7.77;45.58
7802;BME280;3945;48.952;9.506;2023-02-28T11:32:01;98678.38;;;7.60;46.31
7802;BME280;3945;48.952;9.506;2023-02-28T11:34:29;98686.72;;;7.57;45.67
7802;BME280;3945;48.952;9.506;2023-02-28T11:36:57;98686.94;;;7.49;45.07
7802;BME280;3945;48.952;9.506;2023-02-28T11:39:23;98679.19;;;7.41;44.80
7802;BME280;3945;48.952;9.506;2023-02-28T11:41:54;98682.03;;;7.46;45.47
7802;BME280;3945;48.952;9.506;2023-02-28T11:44:29;98678.56;;;7.45;45.81
7802;BME280;3945;48.952;9.506;2023-02-28T11:46:58;98676.72;;;7.39;45.93
7802;BME280;3945;48.952;9.506;2023-02-28T11:49:35;98670.00;;;7.57;46.91
7802;BME280;3945;48.952;9.506;2023-02-28T11:52:06;98662.09;;;7.63;46.21
7802;BME280;3945;48.952;9.506;2023-02-28T11:54:46;98670.00;;;7.50;46.41
7802;BME280;3945;48.952;9.506;2023-02-28T11:57:21;98672.25;;;7.66;47.14
7802;BME280;3945;48.952;9.506;2023-02-28T11:59:56;98674.91;;;7.73;46.00
7802;BME280;3945;48.952;9.506;2023-02-28T12:02:26;98672.88;;;7.88;46.23
7802;BME280;3945;48.952;9.506;2023-02-28T12:07:39;98667.97;;;8.05;46.47
7802;BME280;3945;48.952;9.506;2023-02-28T12:10:12;98666.47;;;8.29;45.54
7802;BME280;3945;48.952;9.506;2023-02-28T12:12:44;98661.56;;;8.52;45.11
7802;BME280;3945;48.952;9.506;2023-02-28T12:15:17;98653.78;;;8.64;44.09
7802;BME280;3945;48.952;9.506;2023-02-28T12:17:51;98656.81;;;8.67;45.51
7802;BME280;3945;48.952;9.506;2023-02-28T12:20:23;98658.66;;;8.67;44.57
7802;BME280;3945;48.952;9.506;2023-02-28T12:22:55;98656.03;;;8.53;44.68
7802;BME280;3945;48.952;9.506;2023-02-28T12:28:20;98657.59;;;8.74;42.86
7802;BME280;3945;48.952;9.506;2023-02-28T12:30:49;98655.81;;;8.61;42.62
7802;BME280;3945;48.952;9.506;2023-02-28T12:33:18;98661.16;;;8.48;43.75
7802;BME280;3945;48.952;9.506;2023-02-28T12:35:47;98645.25;;;8.48;43.86
7802;BME280;3945;48.952;9.506;2023-02-28T12:38:18;98662.03;;;8.16;44.30
7802;BME280;3945;48.952;9.506;2023-02-28T12:40:47;98658.16;;;8.12;45.15
7802;BME280;3945;48.952;9.506;2023-02-28T12:43:16;98651.41;;;8.16;44.81
7802;BME280;3945;48.952;9.506;2023-02-28T12:45:44;98652.44;;;8.15;45.04
7802;BME280;3945;48.952;9.506;2023-02-28T12:48:14;98649.38;;;8.24;44.23
7802;BME280;3945;48.952;9.506;2023-02-28T12:50:41;98639.38;;;8.27;44.59
7802;BME280;3945;48.952;9.506;2023-02-28T12:53:09;98648.56;;;8.24;45.19
7802;BME280;3945;48.952;9.506;2023-02-28T12:55:40;98641.84;;;8.15;43.80
7802;BME280;3945;48.952;9.506;2023-02-28T12:58:11;98627.13;;;8.26;43.95
7802;BME280;3945;48.952;9.506;2023-02-28T13:00:43;98628.72;;;8.46;44.03
7802;BME280;3945;48.952;9.506;2023-02-28T13:03:22;98635.00;;;8.58;45.15
7802;BME280;3945;48.952;9.506;2023-02-28T13:08:52;98628.38;;;8.81;44.47
7802;BME280;3945;48.952;9.506;2023-02-28T13:11:25;98627.78;;;8.79;43.06
7802;BME280;3945;48.952;9.506;2023-02-28T13:13:57;98624.91;;;8.80;43.91
7802;BME280;3945;48.952;9.506;2023-02-28T13:16:24;98621.66;;;8.78;44.07
7802;BME280;3945;48.952;9.506;2023-02-28T13:18:50;98615.09;;;8.81;44.12
7802;BME280;3945;48.952;9.506;2023-02-28T13:21:23;98620.44;;;8.74;43.54
7802;BME280;3945;48.952;9.506;2023-02-28T13:24:00;98619.00;;;8.78;44.13
7802;BME280;3945;48.952;9.506;2023-02-28T13:29:28;98620.13;;;8.51;43.91
7802;BME280;3945;48.952;9.506;2023-02-28T13:34:38;98613.97;;;8.64;44.41
7802;BME280;3945;48.952;9.506;2023-02-28T13:39:50;98611.13;;;8.58;43.92
7802;BME280;3945;48.952;9.506;2023-02-28T13:45:23;98621.41;;;8.29;44.70
7802;BME280;3945;48.952;9.506;2023-02-28T13:47:54;98626.50;;;8.30;45.33
7802;BME280;3945;48.952;9.506;2023-02-28T13:50:21;98622.19;;;8.49;45.86
7802;BME280;3945;48.952;9.506;2023-02-28T13:52:50;98616.88;;;8.55;44.94
7802;BME280;3945;48.952;9.506;2023-02-28T13:55:24;98614.78;;;8.57;45.38